sensor_id;sensor_type;location;lat;lon;timestamp;pressure;altitude;pressure_sealevel;temperature;humidity
16016;BME280;8112;53.592;10.184;2023-10-08T00:03:54;101905.81;;;10.59;100.00
16016;BME280;8112;53.592;10.184;2023-10-08T00:08:58;101918.03;;;10.62;100.00
16016;BME280;8112;53.592;10.184;2023-10-08T00:14:01;101936.06;;;10.73;100.00
16016;BME280;8112;53.592;10.184;2023-10-08T00:19:07;101931.03;;;10.89;100.00
16016;BME280;8112;53.592;10.184;2023-10-08T00:24:11;101914.69;;;10.79;100.00
16016;BME280;8112;53.592;10.184;2023-10-08T00:29:13;101923.25;;;10.63;100.00
16016;BME280;8112;53.592;10.184;2023-10-08T00:34:23;101931.03;;;10.66;100.00
16016;BME280;8112;53.592;10.184;2023-10-08T00:39:25;101945.16;;;10.65;100.00
16016;BME280;8112;53.592;10.184;2023-10-08T00:44:27;101975.19;;;10.61;100.00
16016;BME280;8112;53.592;10.184;2023-10-08T00:49:32;101995.53;;;10.58;100.00
16016;BME280;8112;53.592;10.184;2023-10-08T00:54:48;101983.28;;;10.57;100.00
16016;BME280;8112;53.592;10.184;2023-10-08T00:59:58;101975.66;;;10.49;100.00
16016;BME280;8112;53.592;10.184;2023-10-08T01:05:01;101970.94;;;10.57;100.00
16016;BME280;8112;53.592;10.184;2023-10-08T01:10:03;101987.66;;;10.56;100.00
16016;BME280;8112;53.592;10.184;2023-10-08T01:15:10;101990.19;;;10.59;100.00
16016;BME280;8112;53.592;10.184;2023-10-08T01:20:20;101985.81;;;10.58;100.00
16016;BME280;8112;53.592;10.184;2023-10-08T01:25:36;101996.50;;;10.55;100.00
16016;BME280;8112;53.592;10.184;2023-10-08T01:30:39;101996.63;;;10.52;100.00
16016;BME280;8112;53.592;10.184;2023-10-08T01:35:42;101989.50;;;10.54;100.00
16016;BME280;8112;53.592;10.184;2023-10-08T01:40:45;101993.75;;;10.58;100.00
16016;BME280;8112;53.592;10.184;2023-10-08T01:45:51;101998.47;;;10.50;100.00
16016;BME280;8112;53.592;10.184;2023-10-08T01:50:54;101989.63;;;10.51;100.00
16016;BME280;8112;53.592;10.184;2023-10-08T01:55:57;102001.22;;;10.47;100.00
16016;BME280;8112;53.592;10.184;2023-10-08T02:00:59;101968.00;;;10.65;100.00
16016;BME280;8112;53.592;10.184;2023-10-08T02:06:01;101951.75;;;10.76;100.00
16016;BME280;8112;53.592;10.184;2023-10-08T02:11:07;101948.66;;;10.87;100.00
16016;BME280;8112;53.592;10.184;2023-10-08T02:16:10;101953.09;;;10.86;100.00
16016;BME280;8112;53.592;10.184;2023-10-08T02:21:13;101968.50;;;10.75;100.00
16016;BME280;8112;53.592;10.184;2023-10-08T02:26:16;101990.69;;;10.69;100.00
16016;BME280;8112;53.592;10.184;2023-10-08T02:31:19;101997.63;;;10.72;100.00
16016;BME280;8112;53.592;10.184;2023-10-08T02:36:21;102016.38;;;10.64;100.00
16016;BME280;8112;53.592;10.184;2023-10-08T02:41:24;102006.00;;;10.59;100.00
16016;BME280;8112;53.592;10.184;2023-10-08T02:46:26;102035.91;;;10.58;100.00
16016;BME280;8112;53.592;10.184;2023-10-08T02:51:31;102038.00;;;10.50;100.00
16016;BME280;8112;53.592;10.184;2023-10-08T02:56:34;102034.31;;;10.54;100.00
16016;BME280;8112;53.592;10.184;2023-10-08T03:01:36;102031.56;;;10.57;100.00
16016;BME280;8112;53.592;10.184;2023-10-08T03:06:41;102043.94;;;10.55;100.00
16016;BME280;8112;53.592;10.184;2023-10-08T03:11:44;102046.88;;;10.47;100.00
16016;BME280;8112;53.592;10.184;2023-10-08T03:16:49;102047.66;;;10.49;100.00
16016;BME280;8112;53.592;10.184;2023-10-08T03:21:51;102051.19;;;10.50;100.00
16016;BME280;8112;53.592;10.184;2023-10-08T03:26:57;102053.94;;;10.47;100.00
16016;BME280;8112;53.592;10.184;2023-10-08T03:32:08;102056.81;;;10.39;100.00
16016;BME280;8112;53.592;10.184;2023-10-08T03:37:16;102072.00;;;10.32;100.00
16016;BME280;8112;53.592;10.184;2023-10-08T03:42:23;102066.75;;;10.31;100.00
16016;BME280;8112;53.592;10.184;2023-10-08T03:47:25;102073.31;;;10.20;100.00
16016;BME280;8112;53.592;10.184;2023-10-08T03:52:27;102096.38;;;10.13;100.00
16016;BME280;8112;53.592;10.184;2023-10-08T03:57:32;102070.97;;;10.11;100.00
16016;BME280;8112;53.592;10.184;2023-10-08T04:02:42;102077.97;;;10.12;100.00
16016;BME280;8112;53.592;10.184;2023-10-08T04:07:54;102083.44;;;10.07;100.00
16016;BME280;8112;53.592;10.184;2023-10-08T04:13:21;102093.25;;;10.02;100.00
16016;BME280;8112;53.592;10.184;2023-10-08T04:18:23;102098.19;;;10.11;100.00
16016;BME280;8112;53.592;10.184;2023-10-08T04:23:25;102087.97;;;10.02;100.00
16016;BME280;8112;53.592;10.184;2023-10-08T04:28:28;102114.31;;;10.02;100.00
16016;BME280;8112;53.592;10.184;2023-10-08T04:33:34;102117.13;;;9.97;100.00
16016;BME280;8112;53.592;10.184;2023-10-08T04:38:36;102141.38;;;9.80;100.00
16016;BME280;8112;53.592;10.184;2023-10-08T04:43:42;102145.84;;;9.78;100.00
16016;BME280;8112;53.592;10.184;2023-10-08T04:48:43;102156.22;;;9.83;100.00
16016;BME280;8112;53.592;10.184;2023-10-08T04:53:45;102154.13;;;9.93;100.00
16016;BME280;8112;53.592;10.184;2023-10-08T04:58:49;102150.53;;;9.95;100.00
16016;BME280;8112;53.592;10.184;2023-10-08T05:03:53;102160.44;;;9.89;100.00
16016;BME280;8112;53.592;10.184;2023-10-08T05:09:23;102157.38;;;10.01;100.00
16016;BME280;8112;53.592;10.184;2023-10-08T05:14:40;102163.69;;;9.95;100.00
16016;BME280;8112;53.592;10.184;2023-10-08T05:19:56;102176.13;;;9.92;100.00
16016;BME280;8112;53.592;10.184;2023-10-08T05:25:17;102179.56;;;9.94;100.00
16016;BME280;8112;53.592;10.184;2023-10-08T05:30:41;102186.75;;;9.89;100.00
16016;BME280;8112;53.592;10.184;2023-10-08T05:35:53;102195.63;;;9.86;100.00
16016;BME280;8112;53.592;10.184;2023-10-08T05:41:10;102206.00;;;9.91;100.00
16016;BME280;8112;53.592;10.184;2023-10-08T05:46:29;102205.19;;;9.89;100.00
16016;BME280;8112;53.592;10.184;2023-10-08T05:51:47;102205.28;;;9.86;100.00
16016;BME280;8112;53.592;10.184;2023-10-08T05:57:11;102206.38;;;9.78;100.00
16016;BME280;8112;53.592;10.184;2023-10-08T06:02:37;102217.63;;;9.83;100.00
16016;BME280;8112;53.592;10.184;2023-10-08T06:08:00;102220.97;;;9.60;100.00
16016;BME280;8112;53.592;10.184;2023-10-08T06:13:14;102223.81;;;9.54;100.00
16016;BME280;8112;53.592;10.184;2023-10-08T06:18:22;102242.31;;;9.52;100.00
16016;BME280;8112;53.592;10.184;2023-10-08T06:23:27;102242.03;;;9.60;100.00
16016;BME280;8112;53.592;10.184;2023-10-08T06:28:35;102248.63;;;9.75;100.00
16016;BME280;8112;53.592;10.184;2023-10-08T06:33:40;102269.25;;;9.89;100.00
16016;BME280;8112;53.592;10.184;2023-10-08T06:38:43;102264.97;;;10.13;100.00
16016;BME280;8112;53.592;10.184;2023-10-08T06:43:49;102268.81;;;10.30;100.00
16016;BME280;8112;53.592;10.184;2023-10-08T06:49:06;102285.69;;;10.51;100.00
16016;BME280;8112;53.592;10.184;2023-10-08T06:54:11;102298.22;;;10.72;100.00
16016;BME280;8112;53.592;10.184;2023-10-08T06:59:14;102303.38;;;10.75;100.00
16016;BME280;8112;53.592;10.184;2023-10-08T07:04:18;102299.81;;;10.76;100.00
16016;BME280;8112;53.592;10.184;2023-10-08T07:09:22;102301.75;;;10.96;100.00
16016;BME280;8112;53.592;10.184;2023-10-08T07:14:29;102285.72;;;11.02;100.00
16016;BME280;8112;53.592;10.184;2023-10-08T07:19:33;102286.13;;;11.15;100.00
16016;BME280;8112;53.592;10.184;2023-10-08T07:24:37;102276.44;;;11.16;100.00
16016;BME280;8112;53.592;10.184;2023-10-08T07:29:40;102276.06;;;11.25;100.00
16016;BME280;8112;53.592;10.184;2023-10-08T07:34:43;102276.03;;;11.26;100.00
16016;BME280;8112;53.592;10.184;2023-10-08T07:39:44;102271.09;;;11.41;100.00
16016;BME280;8112;53.592;10.184;2023-10-08T07:44:47;102262.03;;;11.48;100.00
16016;BME280;8112;53.592;10.184;2023-10-08T07:49:52;102271.53;;;11.52;100.00
16016;BME280;8112;53.592;10.184;2023-10-08T07:54:54;102271.63;;;11.51;100.00
16016;BME280;8112;53.592;10.184;2023-10-08T07:59:56;102276.81;;;11.52;100.00
16016;BME280;8112;53.592;10.184;2023-10-08T08:05:19;102279.91;;;11.64;100.00
16016;BME280;8112;53.592;10.184;2023-10-08T08:10:21;102274.50;;;11.67;100.00
16016;BME280;8112;53.592;10.184;2023-10-08T08:15:24;102283.56;;;11.83;100.00
16016;BME280;8112;53.592;10.184;2023-10-08T08:20:29;102284.00;;;11.95;100.00
16016;BME280;8112;53.592;10.184;2023-10-08T08:25:40;102280.00;;;11.84;100.00
16016;BME280;8112;53.592;10.184;2023-10-08T08:31:05;102288.84;;;11.83;100.00
16016;BME280;8112;53.592;10.184;2023-10-08T08:36:14;102289.72;;;11.84;100.00
16016;BME280;8112;53.592;10.184;2023-10-08T08:41:17;102299.69;;;12.00;100.00
16016;BME280;8112;53.592;10.184;2023-10-08T08:46:19;102304.47;;;12.12;100.00
16016;BME280;8112;53.592;10.184;2023-10-08T08:51:22;102311.00;;;12.25;100.00
16016;BME280;8112;53.592;10.184;2023-10-08T08:56:24;102320.38;;;12.33;100.00
16016;BME280;8112;53.592;10.184;2023-10-08T09:01:27;102320.06;;;12.40;100.00
16016;BME280;8112;53.592;10.184;2023-10-08T09:06:33;102322.84;;;12.37;100.00
16016;BME280;8112;53.592;10.184;2023-10-08T09:11:40;102330.66;;;12.61;100.00
16016;BME280;8112;53.592;10.184;2023-10-08T09:16:44;102333.06;;;12.67;100.00
16016;BME280;8112;53.592;10.184;2023-10-08T09:22:01;102332.53;;;12.80;100.00
16016;BME280;8112;53.592;10.184;2023-10-08T09:27:05;102325.31;;;13.04;100.00
16016;BME280;8112;53.592;10.184;2023-10-08T09:32:09;102337.47;;;13.50;100.00
16016;BME280;8112;53.592;10.184;2023-10-08T09:37:12;102334.47;;;13.58;100.00
16016;BME280;8112;53.592;10.184;2023-10-08T09:42:14;102337.03;;;13.78;100.00
16016;BME280;8112;53.592;10.184;2023-10-08T09:47:20;102340.31;;;13.83;100.00
16016;BME280;8112;53.592;10.184;2023-10-08T09:52:33;102332.00;;;13.72;100.00
16016;BME280;8112;53.592;10.184;2023-10-08T09:57:35;102354.78;;;13.76;100.00
16016;BME280;8112;53.592;10.184;2023-10-08T10:02:37;102345.09;;;13.94;100.00
16016;BME280;8112;53.592;10.184;2023-10-08T10:07:41;102342.19;;;14.01;100.00
16016;BME280;8112;53.592;10.184;2023-10-08T10:12:44;102354.16;;;14.27;100.00
16016;BME280;8112;53.592;10.184;2023-10-08T10:17:47;102353.34;;;14.62;100.00
16016;BME280;8112;53.592;10.184;2023-10-08T10:22:51;102349.78;;;14.98;100.00
16016;BME280;8112;53.592;10.184;2023-10-08T10:33:30;102358.75;;;15.79;100.00
16016;BME280;8112;53.592;10.184;2023-10-08T10:38:35;102360.06;;;16.20;100.00
16016;BME280;8112;53.592;10.184;2023-10-08T10:43:36;102342.47;;;16.64;100.00
16016;BME280;8112;53.592;10.184;2023-10-08T10:48:42;102344.97;;;17.27;100.00
16016;BME280;8112;53.592;10.184;2023-10-08T10:53:57;102319.84;;;17.31;100.00
16016;BME280;8112;53.592;10.184;2023-10-08T10:59:08;102314.03;;;17.24;100.00
16016;BME280;8112;53.592;10.184;2023-10-08T11:04:19;102316.31;;;17.16;100.00
16016;BME280;8112;53.592;10.184;2023-10-08T11:09:30;102315.56;;;18.65;100.00
16016;BME280;8112;53.592;10.184;2023-10-08T11:14:39;102299.16;;;20.22;100.00
16016;BME280;8112;53.592;10.184;2023-10-08T11:19:43;102282.16;;;19.99;100.00
16016;BME280;8112;53.592;10.184;2023-10-08T11:24:48;102285.69;;;20.47;100.00
16016;BME280;8112;53.592;10.184;2023-10-08T11:29:55;102276.56;;;20.02;100.00
16016;BME280;8112;53.592;10.184;2023-10-08T11:34:58;102281.97;;;19.02;100.00
16016;BME280;8112;53.592;10.184;2023-10-08T11:40:03;102298.09;;;18.87;100.00
16016;BME280;8112;53.592;10.184;2023-10-08T11:45:16;102305.75;;;17.85;100.00
16016;BME280;8112;53.592;10.184;2023-10-08T11:50:25;102305.63;;;18.42;100.00
16016;BME280;8112;53.592;10.184;2023-10-08T11:55:35;102301.59;;;18.49;100.00
16016;BME280;8112;53.592;10.184;2023-10-08T12:00:40;102307.41;;;19.07;100.00
16016;BME280;8112;53.592;10.184;2023-10-08T12:05:45;102284.19;;;18.69;100.00
16016;BME280;8112;53.592;10.184;2023-10-08T12:10:50;102281.03;;;20.02;100.00
16016;BME280;8112;53.592;10.184;2023-10-08T12:15:54;102284.03;;;19.48;100.00
16016;BME280;8112;53.592;10.184;2023-10-08T12:21:06;102290.28;;;18.84;100.00
16016;BME280;8112;53.592;10.184;2023-10-08T12:26:12;102291.75;;;18.36;100.00
16016;BME280;8112;53.592;10.184;2023-10-08T12:31:17;102265.63;;;19.44;100.00
16016;BME280;8112;53.592;10.184;2023-10-08T12:36:22;102263.69;;;20.55;100.00
16016;BME280;8112;53.592;10.184;2023-10-08T12:41:35;102253.25;;;21.20;98.16
16016;BME280;8112;53.592;10.184;2023-10-08T12:46:38;102261.56;;;21.05;97.11
16016;BME280;8112;53.592;10.184;2023-10-08T12:51:44;102281.25;;;20.59;84.34
16016;BME280;8112;53.592;10.184;2023-10-08T12:56:47;102280.84;;;19.43;100.00
16016;BME280;8112;53.592;10.184;2023-10-08T13:01:49;102270.19;;;18.91;100.00
16016;BME280;8112;53.592;10.184;2023-10-08T13:06:54;102288.81;;;18.14;96.24
16016;BME280;8112;53.592;10.184;2023-10-08T13:11:58;102283.81;;;17.52;96.29
16016;BME280;8112;53.592;10.184;2023-10-08T13:17:00;102291.47;;;17.15;100.00
16016;BME280;8112;53.592;10.184;2023-10-08T13:22:02;102302.75;;;16.90;100.00
16016;BME280;8112;53.592;10.184;2023-10-08T13:27:08;102309.72;;;16.92;100.00
16016;BME280;8112;53.592;10.184;2023-10-08T13:32:10;102305.66;;;16.56;100.00
16016;BME280;8112;53.592;10.184;2023-10-08T13:37:17;102295.78;;;16.28;100.00
16016;BME280;8112;53.592;10.184;2023-10-08T13:42:20;102296.28;;;16.34;100.00
16016;BME280;8112;53.592;10.184;2023-10-08T13:47:22;102297.88;;;16.53;100.00
16016;BME280;8112;53.592;10.184;2023-10-08T13:52:26;102306.59;;;16.55;100.00
16016;BME280;8112;53.592;10.184;2023-10-08T13:57:29;102295.06;;;16.40;100.00
16016;BME280;8112;53.592;10.184;2023-10-08T14:02:33;102313.38;;;16.30;100.00
16016;BME280;8112;53.592;10.184;2023-10-08T14:07:39;102315.13;;;16.15;100.00
16016;BME280;8112;53.592;10.184;2023-10-08T14:12:42;102320.09;;;16.05;100.00
16016;BME280;8112;53.592;10.184;2023-10-08T14:17:44;102311.94;;;16.08;100.00
16016;BME280;8112;53.592;10.184;2023-10-08T14:22:48;102312.38;;;16.01;100.00
16016;BME280;8112;53.592;10.184;2023-10-08T14:27:59;102299.25;;;15.81;100.00
16016;BME280;8112;53.592;10.184;2023-10-08T14:33:05;102299.34;;;15.64;100.00
16016;BME280;8112;53.592;10.184;2023-10-08T14:38:09;102283.97;;;15.37;100.00
16016;BME280;8112;53.592;10.184;2023-10-08T14:43:29;102299.47;;;15.29;100.00
16016;BME280;8112;53.592;10.184;2023-10-08T14:48:34;102297.25;;;15.21;100.00
16016;BME280;8112;53.592;10.184;2023-10-08T14:53:36;102283.78;;;15.24;100.00
16016;BME280;8112;53.592;10.184;2023-10-08T14:58:40;102283.00;;;15.06;100.00
16016;BME280;8112;53.592;10.184;2023-10-08T15:03:42;102270.47;;;14.92;100.00
16016;BME280;8112;53.592;10.184;2023-10-08T15:08:44;102268.28;;;14.65;100.00
16016;BME280;8112;53.592;10.184;2023-10-08T15:13:48;102284.44;;;14.60;100.00
16016;BME280;8112;53.592;10.184;2023-10-08T15:18:56;102269.78;;;14.35;100.00
16016;BME280;8112;53.592;10.184;2023-10-08T15:23:58;102277.03;;;14.32;100.00
16016;BME280;8112;53.592;10.184;2023-10-08T15:29:07;102268.38;;;14.28;100.00
16016;BME280;8112;53.592;10.184;2023-10-08T15:34:10;102248.78;;;14.31;100.00
16016;BME280;8112;53.592;10.184;2023-10-08T15:39:12;102273.03;;;14.23;100.00
16016;BME280;8112;53.592;10.184;2023-10-08T15:44:15;102283.16;;;13.97;100.00
16016;BME280;8112;53.592;10.184;2023-10-08T15:49:18;102283.56;;;13.88;100.00
16016;BME280;8112;53.592;10.184;2023-10-08T15:54:20;102261.38;;;13.90;100.00
16016;BME280;8112;53.592;10.184;2023-10-08T15:59:23;102262.91;;;13.77;100.00
16016;BME280;8112;53.592;10.184;2023-10-08T16:04:25;102252.09;;;13.81;100.00
16016;BME280;8112;53.592;10.184;2023-10-08T16:09:28;102237.91;;;13.82;100.00
16016;BME280;8112;53.592;10.184;2023-10-08T16:14:31;102233.84;;;13.75;100.00
16016;BME280;8112;53.592;10.184;2023-10-08T16:19:33;102244.72;;;13.69;100.00
16016;BME280;8112;53.592;10.184;2023-10-08T16:24:37;102246.13;;;13.59;100.00
16016;BME280;8112;53.592;10.184;2023-10-08T16:29:40;102242.69;;;13.57;100.00
16016;BME280;8112;53.592;10.184;2023-10-08T16:34:42;102249.47;;;13.43;100.00
16016;BME280;8112;53.592;10.184;2023-10-08T16:39:44;102239.78;;;13.42;100.00
16016;BME280;8112;53.592;10.184;2023-10-08T16:44:48;102213.66;;;13.53;100.00
16016;BME280;8112;53.592;10.184;2023-10-08T16:49:50;102218.34;;;13.48;100.00
16016;BME280;8112;53.592;10.184;2023-10-08T16:54:52;102230.06;;;13.23;100.00
16016;BME280;8112;53.592;10.184;2023-10-08T16:59:55;102247.13;;;13.16;100.00
16016;BME280;8112;53.592;10.184;2023-10-08T17:04:57;102249.69;;;12.98;100.00
16016;BME280;8112;53.592;10.184;2023-10-08T17:09:59;102225.56;;;13.25;100.00
16016;BME280;8112;53.592;10.184;2023-10-08T17:15:02;102233.97;;;13.34;100.00
16016;BME280;8112;53.592;10.184;2023-10-08T17:20:06;102215.75;;;13.28;100.00
16016;BME280;8112;53.592;10.184;2023-10-08T17:25:10;102225.56;;;13.25;100.00
16016;BME280;8112;53.592;10.184;2023-10-08T17:30:14;102227.41;;;13.23;100.00
16016;BME280;8112;53.592;10.184;2023-10-08T17:35:19;102203.84;;;13.17;100.00
16016;BME280;8112;53.592;10.184;2023-10-08T17:40:21;102183.50;;;13.19;100.00
16016;BME280;8112;53.592;10.184;2023-10-08T17:45:26;102184.44;;;13.18;100.00
16016;BME280;8112;53.592;10.184;2023-10-08T17:50:35;102180.13;;;13.16;100.00
16016;BME280;8112;53.592;10.184;2023-10-08T17:55:38;102171.59;;;13.09;100.00
16016;BME280;8112;53.592;10.184;2023-10-08T18:00:41;102163.81;;;13.06;100.00
16016;BME280;8112;53.592;10.184;2023-10-08T18:05:44;102154.72;;;13.11;100.00
16016;BME280;8112;53.592;10.184;2023-10-08T18:10:46;102144.22;;;13.10;100.00
16016;BME280;8112;53.592;10.184;2023-10-08T18:15:49;102139.69;;;13.12;100.00
16016;BME280;8112;53.592;10.184;2023-10-08T18:20:51;102145.00;;;13.12;100.00
16016;BME280;8112;53.592;10.184;2023-10-08T18:25:54;102139.78;;;13.10;100.00
16016;BME280;8112;53.592;10.184;2023-10-08T18:30:57;102135.34;;;13.11;100.00
16016;BME280;8112;53.592;10.184;2023-10-08T18:36:07;102134.41;;;13.12;100.00
16016;BME280;8112;53.592;10.184;2023-10-08T18:41:10;102111.81;;;13.05;100.00
16016;BME280;8112;53.592;10.184;2023-10-08T18:46:16;102111.44;;;12.93;100.00
16016;BME280;8112;53.592;10.184;2023-10-08T18:51:18;102114.53;;;12.84;100.00
16016;BME280;8112;53.592;10.184;2023-10-08T18:56:20;102134.50;;;12.72;100.00
16016;BME280;8112;53.592;10.184;2023-10-08T19:01:23;102123.41;;;12.83;100.00
16016;BME280;8112;53.592;10.184;2023-10-08T19:06:26;102130.13;;;12.90;100.00
16016;BME280;8112;53.592;10.184;2023-10-08T19:11:29;102138.13;;;12.89;100.00
16016;BME280;8112;53.592;10.184;2023-10-08T19:16:34;102127.97;;;12.98;100.00
16016;BME280;8112;53.592;10.184;2023-10-08T19:21:36;102123.06;;;12.91;100.00
16016;BME280;8112;53.592;10.184;2023-10-08T19:26:40;102104.16;;;12.98;100.00
16016;BME280;8112;53.592;10.184;2023-10-08T19:31:43;102101.38;;;13.02;100.00
16016;BME280;8112;53.592;10.184;2023-10-08T19:36:46;102097.66;;;13.06;100.00
16016;BME280;8112;53.592;10.184;2023-10-08T19:41:49;102099.50;;;13.04;100.00
16016;BME280;8112;53.592;10.184;2023-10-08T19:46:52;102082.56;;;13.08;100.00
16016;BME280;8112;53.592;10.184;2023-10-08T19:51:54;102074.81;;;13.03;100.00
16016;BME280;8112;53.592;10.184;2023-10-08T19:56:55;102079.50;;;12.98;100.00
16016;BME280;8112;53.592;10.184;2023-10-08T20:02:01;102077.41;;;13.05;100.00
16016;BME280;8112;53.592;10.184;2023-10-08T20:07:02;102073.41;;;12.96;100.00
16016;BME280;8112;53.592;10.184;2023-10-08T20:12:04;102084.56;;;12.83;100.00
16016;BME280;8112;53.592;10.184;2023-10-08T20:17:09;102083.72;;;12.83;100.00
16016;BME280;8112;53.592;10.184;2023-10-08T20:22:11;102066.22;;;12.80;100.00
16016;BME280;8112;53.592;10.184;2023-10-08T20:27:12;102054.28;;;12.72;100.00
16016;BME280;8112;53.592;10.184;2023-10-08T20:32:16;102046.81;;;12.80;100.00
16016;BME280;8112;53.592;10.184;2023-10-08T20:37:18;102037.31;;;12.76;100.00
16016;BME280;8112;53.592;10.184;2023-10-08T20:42:21;102054.97;;;12.56;100.00
16016;BME280;8112;53.592;10.184;2023-10-08T20:47:25;102047.97;;;12.55;100.00
16016;BME280;8112;53.592;10.184;2023-10-08T20:52:28;102043.03;;;12.47;100.00
16016;BME280;8112;53.592;10.184;2023-10-08T20:57:30;102046.22;;;12.56;100.00
16016;BME280;8112;53.592;10.184;2023-10-08T21:02:34;102036.13;;;12.64;100.00
16016;BME280;8112;53.592;10.184;2023-10-08T21:07:36;102019.53;;;12.60;100.00
16016;BME280;8112;53.592;10.184;2023-10-08T21:12:42;102022.47;;;12.54;100.00
16016;BME280;8112;53.592;10.184;2023-10-08T21:17:46;102015.53;;;12.32;100.00
16016;BME280;8112;53.592;10.184;2023-10-08T21:22:49;102010.25;;;12.32;100.00
16016;BME280;8112;53.592;10.184;2023-10-08T21:27:53;102022.94;;;12.24;100.00
16016;BME280;8112;53.592;10.184;2023-10-08T21:32:58;102017.53;;;12.27;100.00
16016;BME280;8112;53.592;10.184;2023-10-08T21:38:01;102035.47;;;12.20;100.00
16016;BME280;8112;53.592;10.184;2023-10-08T21:43:04;102030.88;;;12.24;100.00
16016;BME280;8112;53.592;10.184;2023-10-08T21:48:07;102025.38;;;12.29;100.00
16016;BME280;8112;53.592;10.184;2023-10-08T21:53:09;102005.91;;;12.31;100.00
16016;BME280;8112;53.592;10.184;2023-10-08T21:58:11;101999.69;;;12.32;100.00
16016;BME280;8112;53.592;10.184;2023-10-08T22:03:15;101996.41;;;12.27;100.00
16016;BME280;8112;53.592;10.184;2023-10-08T22:08:16;101998.50;;;12.19;100.00
16016;BME280;8112;53.592;10.184;2023-10-08T22:13:23;101982.66;;;12.19;100.00
16016;BME280;8112;53.592;10.184;2023-10-08T22:18:27;101969.59;;;12.16;100.00
16016;BME280;8112;53.592;10.184;2023-10-08T22:23:28;101976.47;;;11.99;100.00
16016;BME280;8112;53.592;10.184;2023-10-08T22:28:38;101966.03;;;11.96;100.00
16016;BME280;8112;53.592;10.184;2023-10-08T22:33:44;101948.69;;;11.90;100.00
16016;BME280;8112;53.592;10.184;2023-10-08T22:38:48;101932.34;;;11.82;100.00
16016;BME280;8112;53.592;10.184;2023-10-08T22:43:49;101945.09;;;11.72;100.00
16016;BME280;8112;53.592;10.184;2023-10-08T22:48:55;101938.34;;;11.65;100.00
16016;BME280;8112;53.592;10.184;2023-10-08T22:54:03;101940.00;;;11.67;100.00
16016;BME280;8112;53.592;10.184;2023-10-08T22:59:08;101932.53;;;11.77;100.00
16016;BME280;8112;53.592;10.184;2023-10-08T23:04:13;101923.88;;;11.74;100.00
16016;BME280;8112;53.592;10.184;2023-10-08T23:09:15;101903.41;;;11.79;100.00
16016;BME280;8112;53.592;10.184;2023-10-08T23:14:24;101916.97;;;11.71;100.00
16016;BME280;8112;53.592;10.184;2023-10-08T23:19:29;101914.88;;;11.78;100.00
16016;BME280;8112;53.592;10.184;2023-10-08T23:24:31;101881.63;;;11.74;100.00
16016;BME280;8112;53.592;10.184;2023-10-08T23:29:33;101858.94;;;11.69;100.00
16016;BME280;8112;53.592;10.184;2023-10-08T23:34:36;101843.38;;;11.63;100.00
16016;BME280;8112;53.592;10.184;2023-10-08T23:39:38;101856.94;;;11.55;100.00
16016;BME280;8112;53.592;10.184;2023-10-08T23:44:39;101870.91;;;11.58;100.00
16016;BME280;8112;53.592;10.184;2023-10-08T23:49:50;101857.63;;;11.59;100.00
16016;BME280;8112;53.592;10.184;2023-10-08T23:55:01;101902.16;;;11.27;100.00
